sensor_id;sensor_type;location;lat;lon;timestamp;temperature;humidity
51476;DHT22;37554;50.362;7.568;2023-08-24T00:00:10;25.90;59.30
51476;DHT22;37554;50.362;7.568;2023-08-24T00:02:36;25.80;59.30
51476;DHT22;37554;50.362;7.568;2023-08-24T00:05:03;25.80;59.30
51476;DHT22;37554;50.362;7.568;2023-08-24T00:07:29;25.80;59.30
51476;DHT22;37554;50.362;7.568;2023-08-24T00:09:54;25.80;59.40
51476;DHT22;37554;50.362;7.568;2023-08-24T00:12:20;25.80;59.40
51476;DHT22;37554;50.362;7.568;2023-08-24T00:14:46;25.80;59.50
51476;DHT22;37554;50.362;7.568;2023-08-24T00:17:11;25.70;59.50
51476;DHT22;37554;50.362;7.568;2023-08-24T00:19:37;25.80;59.60
51476;DHT22;37554;50.362;7.568;2023-08-24T00:22:02;25.70;59.60
51476;DHT22;37554;50.362;7.568;2023-08-24T00:24:29;25.70;59.70
51476;DHT22;37554;50.362;7.568;2023-08-24T00:26:55;25.70;59.80
51476;DHT22;37554;50.362;7.568;2023-08-24T00:29:20;25.70;59.90
51476;DHT22;37554;50.362;7.568;2023-08-24T00:31:47;25.70;60.00
51476;DHT22;37554;50.362;7.568;2023-08-24T00:34:13;25.60;59.90
51476;DHT22;37554;50.362;7.568;2023-08-24T00:36:39;25.60;59.90
51476;DHT22;37554;50.362;7.568;2023-08-24T00:39:05;25.60;60.00
51476;DHT22;37554;50.362;7.568;2023-08-24T00:41:31;25.60;60.10
51476;DHT22;37554;50.362;7.568;2023-08-24T00:43:57;25.50;60.10
51476;DHT22;37554;50.362;7.568;2023-08-24T00:46:23;25.50;60.10
51476;DHT22;37554;50.362;7.568;2023-08-24T00:48:53;25.50;60.20
51476;DHT22;37554;50.362;7.568;2023-08-24T00:51:22;25.50;60.20
51476;DHT22;37554;50.362;7.568;2023-08-24T00:53:48;25.50;60.20
51476;DHT22;37554;50.362;7.568;2023-08-24T00:56:14;25.50;60.20
51476;DHT22;37554;50.362;7.568;2023-08-24T00:58:40;25.50;60.20
51476;DHT22;37554;50.362;7.568;2023-08-24T01:01:06;25.50;60.20
51476;DHT22;37554;50.362;7.568;2023-08-24T01:03:32;25.40;60.10
51476;DHT22;37554;50.362;7.568;2023-08-24T01:05:57;25.50;60.20
51476;DHT22;37554;50.362;7.568;2023-08-24T01:08:24;25.50;60.20
51476;DHT22;37554;50.362;7.568;2023-08-24T01:13:52;25.40;60.30
51476;DHT22;37554;50.362;7.568;2023-08-24T01:16:25;25.40;60.30
51476;DHT22;37554;50.362;7.568;2023-08-24T01:18:56;25.40;60.30
51476;DHT22;37554;50.362;7.568;2023-08-24T01:21:22;25.40;60.30
51476;DHT22;37554;50.362;7.568;2023-08-24T01:24:00;25.30;60.40
51476;DHT22;37554;50.362;7.568;2023-08-24T01:26:29;25.30;60.40
51476;DHT22;37554;50.362;7.568;2023-08-24T01:28:55;25.30;60.50
51476;DHT22;37554;50.362;7.568;2023-08-24T01:31:20;25.30;60.60
51476;DHT22;37554;50.362;7.568;2023-08-24T01:33:46;25.30;60.60
51476;DHT22;37554;50.362;7.568;2023-08-24T01:36:13;25.30;60.70
51476;DHT22;37554;50.362;7.568;2023-08-24T01:38:40;25.30;60.80
51476;DHT22;37554;50.362;7.568;2023-08-24T01:41:17;25.20;60.70
51476;DHT22;37554;50.362;7.568;2023-08-24T01:43:46;25.20;60.90
51476;DHT22;37554;50.362;7.568;2023-08-24T01:46:15;25.20;60.90
51476;DHT22;37554;50.362;7.568;2023-08-24T01:48:42;25.20;61.00
51476;DHT22;37554;50.362;7.568;2023-08-24T01:51:09;25.20;61.00
51476;DHT22;37554;50.362;7.568;2023-08-24T01:53:36;25.20;61.00
51476;DHT22;37554;50.362;7.568;2023-08-24T01:56:11;25.20;61.00
51476;DHT22;37554;50.362;7.568;2023-08-24T01:58:37;25.10;61.00
51476;DHT22;37554;50.362;7.568;2023-08-24T02:01:03;25.20;61.00
51476;DHT22;37554;50.362;7.568;2023-08-24T02:03:29;25.10;61.00
51476;DHT22;37554;50.362;7.568;2023-08-24T02:05:54;25.10;61.10
51476;DHT22;37554;50.362;7.568;2023-08-24T02:08:20;25.10;61.10
51476;DHT22;37554;50.362;7.568;2023-08-24T02:10:46;25.10;61.10
51476;DHT22;37554;50.362;7.568;2023-08-24T02:13:11;25.10;61.10
51476;DHT22;37554;50.362;7.568;2023-08-24T02:15:38;25.10;61.20
51476;DHT22;37554;50.362;7.568;2023-08-24T02:18:05;25.00;61.10
51476;DHT22;37554;50.362;7.568;2023-08-24T02:20:37;25.10;61.10
51476;DHT22;37554;50.362;7.568;2023-08-24T02:23:04;25.10;61.10
51476;DHT22;37554;50.362;7.568;2023-08-24T02:25:30;25.10;61.10
51476;DHT22;37554;50.362;7.568;2023-08-24T02:27:55;25.00;61.10
51476;DHT22;37554;50.362;7.568;2023-08-24T02:30:21;25.00;61.10
51476;DHT22;37554;50.362;7.568;2023-08-24T02:32:47;25.00;61.20
51476;DHT22;37554;50.362;7.568;2023-08-24T02:35:12;24.90;61.20
51476;DHT22;37554;50.362;7.568;2023-08-24T02:37:38;24.90;61.40
51476;DHT22;37554;50.362;7.568;2023-08-24T02:40:04;24.90;61.40
51476;DHT22;37554;50.362;7.568;2023-08-24T02:42:31;24.90;61.40
51476;DHT22;37554;50.362;7.568;2023-08-24T02:44:58;24.90;61.40
51476;DHT22;37554;50.362;7.568;2023-08-24T02:47:23;24.90;61.50
51476;DHT22;37554;50.362;7.568;2023-08-24T02:49:49;24.90;61.50
51476;DHT22;37554;50.362;7.568;2023-08-24T02:52:14;24.90;61.50
51476;DHT22;37554;50.362;7.568;2023-08-24T02:54:40;24.90;61.60
51476;DHT22;37554;50.362;7.568;2023-08-24T02:57:06;24.80;61.60
51476;DHT22;37554;50.362;7.568;2023-08-24T02:59:31;24.80;61.60
51476;DHT22;37554;50.362;7.568;2023-08-24T03:01:57;24.80;61.70
51476;DHT22;37554;50.362;7.568;2023-08-24T03:04:23;24.70;61.50
51476;DHT22;37554;50.362;7.568;2023-08-24T03:06:49;24.80;61.60
51476;DHT22;37554;50.362;7.568;2023-08-24T03:09:14;24.70;61.50
51476;DHT22;37554;50.362;7.568;2023-08-24T03:11:41;24.70;61.60
51476;DHT22;37554;50.362;7.568;2023-08-24T03:14:06;24.70;61.60
51476;DHT22;37554;50.362;7.568;2023-08-24T03:16:32;24.70;61.70
51476;DHT22;37554;50.362;7.568;2023-08-24T03:18:58;24.70;61.70
51476;DHT22;37554;50.362;7.568;2023-08-24T03:21:23;24.70;61.80
51476;DHT22;37554;50.362;7.568;2023-08-24T03:23:49;24.70;61.90
51476;DHT22;37554;50.362;7.568;2023-08-24T03:26:15;24.70;61.90
51476;DHT22;37554;50.362;7.568;2023-08-24T03:28:42;24.60;61.90
51476;DHT22;37554;50.362;7.568;2023-08-24T03:31:08;24.60;61.90
51476;DHT22;37554;50.362;7.568;2023-08-24T03:33:33;24.70;62.10
51476;DHT22;37554;50.362;7.568;2023-08-24T03:36:00;24.70;62.20
51476;DHT22;37554;50.362;7.568;2023-08-24T03:38:27;24.60;62.10
51476;DHT22;37554;50.362;7.568;2023-08-24T03:41:00;24.60;62.30
51476;DHT22;37554;50.362;7.568;2023-08-24T03:43:26;24.60;62.40
51476;DHT22;37554;50.362;7.568;2023-08-24T03:45:51;24.60;62.40
51476;DHT22;37554;50.362;7.568;2023-08-24T03:48:17;24.60;62.60
51476;DHT22;37554;50.362;7.568;2023-08-24T03:50:42;24.60;62.60
51476;DHT22;37554;50.362;7.568;2023-08-24T03:53:08;24.60;62.70
51476;DHT22;37554;50.362;7.568;2023-08-24T03:55:34;24.50;62.70
51476;DHT22;37554;50.362;7.568;2023-08-24T03:57:59;24.60;62.80
51476;DHT22;37554;50.362;7.568;2023-08-24T04:00:25;24.60;62.90
51476;DHT22;37554;50.362;7.568;2023-08-24T04:02:51;24.50;62.90
51476;DHT22;37554;50.362;7.568;2023-08-24T04:05:17;24.50;63.00
51476;DHT22;37554;50.362;7.568;2023-08-24T04:07:43;24.50;63.20
51476;DHT22;37554;50.362;7.568;2023-08-24T04:10:09;24.50;63.20
51476;DHT22;37554;50.362;7.568;2023-08-24T04:12:35;24.50;63.40
51476;DHT22;37554;50.362;7.568;2023-08-24T04:15:01;24.50;63.50
51476;DHT22;37554;50.362;7.568;2023-08-24T04:17:26;24.40;63.60
51476;DHT22;37554;50.362;7.568;2023-08-24T04:19:52;24.40;63.70
51476;DHT22;37554;50.362;7.568;2023-08-24T04:22:18;24.40;63.80
51476;DHT22;37554;50.362;7.568;2023-08-24T04:24:43;24.40;63.90
51476;DHT22;37554;50.362;7.568;2023-08-24T04:27:09;24.40;64.00
51476;DHT22;37554;50.362;7.568;2023-08-24T04:29:35;24.30;64.00
51476;DHT22;37554;50.362;7.568;2023-08-24T04:32:01;24.30;64.10
51476;DHT22;37554;50.362;7.568;2023-08-24T04:34:26;24.30;64.10
51476;DHT22;37554;50.362;7.568;2023-08-24T04:36:52;24.30;64.20
51476;DHT22;37554;50.362;7.568;2023-08-24T04:39:17;24.40;64.20
51476;DHT22;37554;50.362;7.568;2023-08-24T04:41:44;24.40;64.30
51476;DHT22;37554;50.362;7.568;2023-08-24T04:44:10;24.30;64.30
51476;DHT22;37554;50.362;7.568;2023-08-24T04:46:36;24.30;64.40
51476;DHT22;37554;50.362;7.568;2023-08-24T04:49:01;24.30;64.50
51476;DHT22;37554;50.362;7.568;2023-08-24T04:51:28;24.30;64.40
51476;DHT22;37554;50.362;7.568;2023-08-24T04:53:54;24.40;64.50
51476;DHT22;37554;50.362;7.568;2023-08-24T04:56:20;24.40;64.40
51476;DHT22;37554;50.362;7.568;2023-08-24T04:58:55;24.40;64.40
51476;DHT22;37554;50.362;7.568;2023-08-24T05:01:26;24.30;64.50
51476;DHT22;37554;50.362;7.568;2023-08-24T05:03:52;24.40;64.50
51476;DHT22;37554;50.362;7.568;2023-08-24T05:06:19;24.40;64.40
51476;DHT22;37554;50.362;7.568;2023-08-24T05:08:45;24.30;64.40
51476;DHT22;37554;50.362;7.568;2023-08-24T05:11:12;24.30;64.50
51476;DHT22;37554;50.362;7.568;2023-08-24T05:13:39;24.30;64.50
51476;DHT22;37554;50.362;7.568;2023-08-24T05:16:05;24.30;64.60
51476;DHT22;37554;50.362;7.568;2023-08-24T05:18:30;24.30;64.70
51476;DHT22;37554;50.362;7.568;2023-08-24T05:20:56;24.30;64.80
51476;DHT22;37554;50.362;7.568;2023-08-24T05:23:21;24.30;64.90
51476;DHT22;37554;50.362;7.568;2023-08-24T05:25:47;24.30;64.90
51476;DHT22;37554;50.362;7.568;2023-08-24T05:28:12;24.30;65.00
51476;DHT22;37554;50.362;7.568;2023-08-24T05:30:38;24.30;65.00
51476;DHT22;37554;50.362;7.568;2023-08-24T05:33:04;24.30;65.20
51476;DHT22;37554;50.362;7.568;2023-08-24T05:35:29;24.30;65.30
51476;DHT22;37554;50.362;7.568;2023-08-24T05:37:55;24.30;65.30
51476;DHT22;37554;50.362;7.568;2023-08-24T05:40:20;24.30;65.30
51476;DHT22;37554;50.362;7.568;2023-08-24T05:42:46;24.30;65.30
51476;DHT22;37554;50.362;7.568;2023-08-24T05:45:11;24.30;65.30
51476;DHT22;37554;50.362;7.568;2023-08-24T05:47:37;24.20;65.50
51476;DHT22;37554;50.362;7.568;2023-08-24T05:50:03;24.00;66.50
51476;DHT22;37554;50.362;7.568;2023-08-24T05:52:29;23.70;68.00
51476;DHT22;37554;50.362;7.568;2023-08-24T05:54:54;23.40;69.20
51476;DHT22;37554;50.362;7.568;2023-08-24T05:57:20;23.20;69.70
51476;DHT22;37554;50.362;7.568;2023-08-24T05:59:45;23.20;70.40
51476;DHT22;37554;50.362;7.568;2023-08-24T06:02:11;23.20;70.80
51476;DHT22;37554;50.362;7.568;2023-08-24T06:04:36;23.20;71.00
51476;DHT22;37554;50.362;7.568;2023-08-24T06:07:02;23.10;70.90
51476;DHT22;37554;50.362;7.568;2023-08-24T06:09:30;23.00;71.30
51476;DHT22;37554;50.362;7.568;2023-08-24T06:11:55;22.90;72.00
51476;DHT22;37554;50.362;7.568;2023-08-24T06:14:21;22.80;72.40
51476;DHT22;37554;50.362;7.568;2023-08-24T06:16:47;22.70;72.70
51476;DHT22;37554;50.362;7.568;2023-08-24T06:19:14;22.70;72.70
51476;DHT22;37554;50.362;7.568;2023-08-24T06:21:39;22.60;72.30
51476;DHT22;37554;50.362;7.568;2023-08-24T06:24:05;22.70;72.30
51476;DHT22;37554;50.362;7.568;2023-08-24T06:26:31;22.80;72.20
51476;DHT22;37554;50.362;7.568;2023-08-24T06:28:56;22.80;72.00
51476;DHT22;37554;50.362;7.568;2023-08-24T06:31:22;22.70;72.20
51476;DHT22;37554;50.362;7.568;2023-08-24T06:33:49;22.70;72.30
51476;DHT22;37554;50.362;7.568;2023-08-24T06:36:15;22.60;72.60
51476;DHT22;37554;50.362;7.568;2023-08-24T06:38:40;22.50;72.80
51476;DHT22;37554;50.362;7.568;2023-08-24T06:41:06;22.40;73.40
51476;DHT22;37554;50.362;7.568;2023-08-24T06:43:34;22.40;73.70
51476;DHT22;37554;50.362;7.568;2023-08-24T06:45:59;22.40;73.90
51476;DHT22;37554;50.362;7.568;2023-08-24T06:48:25;22.50;74.20
51476;DHT22;37554;50.362;7.568;2023-08-24T06:50:51;22.50;74.20
51476;DHT22;37554;50.362;7.568;2023-08-24T06:53:16;22.50;74.20
51476;DHT22;37554;50.362;7.568;2023-08-24T06:55:42;22.50;73.70
51476;DHT22;37554;50.362;7.568;2023-08-24T06:58:08;22.50;74.00
51476;DHT22;37554;50.362;7.568;2023-08-24T07:00:33;22.50;73.80
51476;DHT22;37554;50.362;7.568;2023-08-24T07:02:59;22.50;74.00
51476;DHT22;37554;50.362;7.568;2023-08-24T07:05:25;22.50;73.80
51476;DHT22;37554;50.362;7.568;2023-08-24T07:07:51;22.50;73.90
51476;DHT22;37554;50.362;7.568;2023-08-24T07:10:17;22.50;74.00
51476;DHT22;37554;50.362;7.568;2023-08-24T07:12:43;22.60;74.00
51476;DHT22;37554;50.362;7.568;2023-08-24T07:15:13;22.60;74.00
51476;DHT22;37554;50.362;7.568;2023-08-24T07:17:39;22.70;74.10
51476;DHT22;37554;50.362;7.568;2023-08-24T07:20:05;22.70;73.80
51476;DHT22;37554;50.362;7.568;2023-08-24T07:22:32;22.70;73.80
51476;DHT22;37554;50.362;7.568;2023-08-24T07:24:58;22.80;73.70
51476;DHT22;37554;50.362;7.568;2023-08-24T07:27:23;22.90;73.80
51476;DHT22;37554;50.362;7.568;2023-08-24T07:29:49;22.90;73.40
51476;DHT22;37554;50.362;7.568;2023-08-24T07:32:15;23.10;73.30
51476;DHT22;37554;50.362;7.568;2023-08-24T07:34:40;23.20;72.90
51476;DHT22;37554;50.362;7.568;2023-08-24T07:37:06;23.30;72.40
51476;DHT22;37554;50.362;7.568;2023-08-24T07:39:32;23.40;72.00
51476;DHT22;37554;50.362;7.568;2023-08-24T07:41:58;23.50;71.50
51476;DHT22;37554;50.362;7.568;2023-08-24T07:44:23;23.60;71.00
51476;DHT22;37554;50.362;7.568;2023-08-24T07:46:49;23.60;70.50
51476;DHT22;37554;50.362;7.568;2023-08-24T07:49:15;23.70;70.10
51476;DHT22;37554;50.362;7.568;2023-08-24T07:51:40;23.80;70.10
51476;DHT22;37554;50.362;7.568;2023-08-24T07:54:08;24.00;69.90
51476;DHT22;37554;50.362;7.568;2023-08-24T07:56:33;24.10;69.20
51476;DHT22;37554;50.362;7.568;2023-08-24T07:58:59;24.20;69.00
51476;DHT22;37554;50.362;7.568;2023-08-24T08:01:25;24.40;68.90
51476;DHT22;37554;50.362;7.568;2023-08-24T08:03:50;24.50;69.00
51476;DHT22;37554;50.362;7.568;2023-08-24T08:06:16;24.60;68.70
51476;DHT22;37554;50.362;7.568;2023-08-24T08:08:41;24.70;68.70
51476;DHT22;37554;50.362;7.568;2023-08-24T08:11:07;24.80;68.20
51476;DHT22;37554;50.362;7.568;2023-08-24T08:13:33;24.90;67.90
51476;DHT22;37554;50.362;7.568;2023-08-24T08:16:03;25.10;67.00
51476;DHT22;37554;50.362;7.568;2023-08-24T08:18:29;25.20;66.70
51476;DHT22;37554;50.362;7.568;2023-08-24T08:20:54;25.20;66.80
51476;DHT22;37554;50.362;7.568;2023-08-24T08:23:20;25.20;66.10
51476;DHT22;37554;50.362;7.568;2023-08-24T08:25:46;25.30;66.10
51476;DHT22;37554;50.362;7.568;2023-08-24T08:28:11;25.50;66.40
51476;DHT22;37554;50.362;7.568;2023-08-24T08:30:37;25.70;66.20
51476;DHT22;37554;50.362;7.568;2023-08-24T08:33:03;25.90;65.10
51476;DHT22;37554;50.362;7.568;2023-08-24T08:35:28;26.10;64.50
51476;DHT22;37554;50.362;7.568;2023-08-24T08:37:54;26.30;64.00
51476;DHT22;37554;50.362;7.568;2023-08-24T08:40:20;26.30;63.80
51476;DHT22;37554;50.362;7.568;2023-08-24T08:42:46;26.40;63.50
51476;DHT22;37554;50.362;7.568;2023-08-24T08:45:11;26.60;63.50
51476;DHT22;37554;50.362;7.568;2023-08-24T08:47:38;26.70;63.20
51476;DHT22;37554;50.362;7.568;2023-08-24T08:50:06;26.80;62.70
51476;DHT22;37554;50.362;7.568;2023-08-24T08:52:32;27.00;62.40
51476;DHT22;37554;50.362;7.568;2023-08-24T08:55:00;27.00;61.90
51476;DHT22;37554;50.362;7.568;2023-08-24T08:57:25;27.00;61.60
51476;DHT22;37554;50.362;7.568;2023-08-24T08:59:52;27.10;62.00
51476;DHT22;37554;50.362;7.568;2023-08-24T09:02:19;27.30;61.70
51476;DHT22;37554;50.362;7.568;2023-08-24T09:04:46;27.40;60.80
51476;DHT22;37554;50.362;7.568;2023-08-24T09:07:16;27.60;60.50
51476;DHT22;37554;50.362;7.568;2023-08-24T09:09:42;27.70;59.90
51476;DHT22;37554;50.362;7.568;2023-08-24T09:12:09;27.80;59.70
51476;DHT22;37554;50.362;7.568;2023-08-24T09:14:35;28.10;60.10
51476;DHT22;37554;50.362;7.568;2023-08-24T09:17:01;28.10;59.30
51476;DHT22;37554;50.362;7.568;2023-08-24T09:19:30;28.20;59.10
51476;DHT22;37554;50.362;7.568;2023-08-24T09:22:00;28.30;59.20
51476;DHT22;37554;50.362;7.568;2023-08-24T09:24:34;28.50;58.70
51476;DHT22;37554;50.362;7.568;2023-08-24T09:27:26;28.60;58.60
51476;DHT22;37554;50.362;7.568;2023-08-24T09:29:52;28.60;59.00
51476;DHT22;37554;50.362;7.568;2023-08-24T09:32:28;28.70;59.10
51476;DHT22;37554;50.362;7.568;2023-08-24T09:34:55;28.80;58.70
51476;DHT22;37554;50.362;7.568;2023-08-24T09:37:21;28.90;58.60
51476;DHT22;37554;50.362;7.568;2023-08-24T09:39:46;29.00;57.70
51476;DHT22;37554;50.362;7.568;2023-08-24T09:42:13;29.10;58.10
51476;DHT22;37554;50.362;7.568;2023-08-24T09:44:45;29.30;57.70
51476;DHT22;37554;50.362;7.568;2023-08-24T09:47:11;29.60;57.60
51476;DHT22;37554;50.362;7.568;2023-08-24T09:49:37;29.70;57.50
51476;DHT22;37554;50.362;7.568;2023-08-24T09:52:07;29.70;56.20
51476;DHT22;37554;50.362;7.568;2023-08-24T09:54:36;29.70;56.20
51476;DHT22;37554;50.362;7.568;2023-08-24T09:57:02;29.70;55.70
51476;DHT22;37554;50.362;7.568;2023-08-24T09:59:31;29.60;55.90
51476;DHT22;37554;50.362;7.568;2023-08-24T10:01:59;29.60;56.10
51476;DHT22;37554;50.362;7.568;2023-08-24T10:04:29;29.60;55.90
51476;DHT22;37554;50.362;7.568;2023-08-24T10:07:05;29.60;55.50
51476;DHT22;37554;50.362;7.568;2023-08-24T10:09:35;29.50;55.10
51476;DHT22;37554;50.362;7.568;2023-08-24T10:12:04;29.40;55.80
51476;DHT22;37554;50.362;7.568;2023-08-24T10:14:44;29.40;55.20
51476;DHT22;37554;50.362;7.568;2023-08-24T10:17:13;29.50;55.50
51476;DHT22;37554;50.362;7.568;2023-08-24T10:19:40;29.50;55.10
51476;DHT22;37554;50.362;7.568;2023-08-24T10:22:07;29.50;55.20
51476;DHT22;37554;50.362;7.568;2023-08-24T10:24:33;29.60;54.50
51476;DHT22;37554;50.362;7.568;2023-08-24T10:27:00;29.60;53.80
51476;DHT22;37554;50.362;7.568;2023-08-24T10:29:27;29.60;53.60
51476;DHT22;37554;50.362;7.568;2023-08-24T10:31:54;29.50;53.70
51476;DHT22;37554;50.362;7.568;2023-08-24T10:34:21;29.50;53.80
51476;DHT22;37554;50.362;7.568;2023-08-24T10:36:49;29.40;54.30
51476;DHT22;37554;50.362;7.568;2023-08-24T10:39:15;29.40;53.90
51476;DHT22;37554;50.362;7.568;2023-08-24T10:41:51;29.40;53.70
51476;DHT22;37554;50.362;7.568;2023-08-24T10:44:37;29.40;53.60
51476;DHT22;37554;50.362;7.568;2023-08-24T10:47:11;29.40;53.40
51476;DHT22;37554;50.362;7.568;2023-08-24T10:49:44;29.40;54.20
51476;DHT22;37554;50.362;7.568;2023-08-24T10:52:32;29.30;54.50
51476;DHT22;37554;50.362;7.568;2023-08-24T10:55:05;29.30;55.00
51476;DHT22;37554;50.362;7.568;2023-08-24T10:58:01;29.30;54.70
51476;DHT22;37554;50.362;7.568;2023-08-24T11:00:31;29.30;54.10
51476;DHT22;37554;50.362;7.568;2023-08-24T11:03:00;29.30;53.80
51476;DHT22;37554;50.362;7.568;2023-08-24T11:05:31;29.40;53.60
51476;DHT22;37554;50.362;7.568;2023-08-24T11:08:02;29.50;53.40
51476;DHT22;37554;50.362;7.568;2023-08-24T11:13:12;29.60;52.80
51476;DHT22;37554;50.362;7.568;2023-08-24T11:15:41;29.60;52.50
51476;DHT22;37554;50.362;7.568;2023-08-24T11:18:13;29.70;52.10
51476;DHT22;37554;50.362;7.568;2023-08-24T11:20:55;29.70;51.80
51476;DHT22;37554;50.362;7.568;2023-08-24T11:23:23;29.80;52.10
51476;DHT22;37554;50.362;7.568;2023-08-24T11:25:51;29.80;52.20
51476;DHT22;37554;50.362;7.568;2023-08-24T11:28:21;29.70;52.20
51476;DHT22;37554;50.362;7.568;2023-08-24T11:30:47;29.70;52.00
51476;DHT22;37554;50.362;7.568;2023-08-24T11:33:17;29.70;52.10
51476;DHT22;37554;50.362;7.568;2023-08-24T11:35:52;29.60;52.10
51476;DHT22;37554;50.362;7.568;2023-08-24T11:38:18;29.60;52.20
51476;DHT22;37554;50.362;7.568;2023-08-24T11:40:44;29.60;52.30
51476;DHT22;37554;50.362;7.568;2023-08-24T11:43:10;29.50;52.80
51476;DHT22;37554;50.362;7.568;2023-08-24T11:45:37;29.50;53.50
51476;DHT22;37554;50.362;7.568;2023-08-24T11:48:04;29.60;53.90
51476;DHT22;37554;50.362;7.568;2023-08-24T11:50:30;29.60;53.90
51476;DHT22;37554;50.362;7.568;2023-08-24T11:52:56;29.50;53.10
51476;DHT22;37554;50.362;7.568;2023-08-24T11:55:23;29.50;52.70
51476;DHT22;37554;50.362;7.568;2023-08-24T11:57:49;29.50;53.00
51476;DHT22;37554;50.362;7.568;2023-08-24T12:00:16;29.50;53.20
51476;DHT22;37554;50.362;7.568;2023-08-24T12:02:43;29.50;53.30
51476;DHT22;37554;50.362;7.568;2023-08-24T12:05:23;29.50;53.10
51476;DHT22;37554;50.362;7.568;2023-08-24T12:07:49;29.40;53.00
51476;DHT22;37554;50.362;7.568;2023-08-24T12:10:16;29.40;52.80
51476;DHT22;37554;50.362;7.568;2023-08-24T12:12:42;29.30;52.50
51476;DHT22;37554;50.362;7.568;2023-08-24T12:15:07;29.30;52.40
51476;DHT22;37554;50.362;7.568;2023-08-24T12:17:44;29.20;52.70
51476;DHT22;37554;50.362;7.568;2023-08-24T12:20:18;29.10;52.80
51476;DHT22;37554;50.362;7.568;2023-08-24T12:22:43;29.10;52.90
51476;DHT22;37554;50.362;7.568;2023-08-24T12:25:09;29.00;53.10
51476;DHT22;37554;50.362;7.568;2023-08-24T12:27:35;28.90;53.20
51476;DHT22;37554;50.362;7.568;2023-08-24T12:30:03;28.80;53.40
51476;DHT22;37554;50.362;7.568;2023-08-24T12:32:46;28.80;54.10
51476;DHT22;37554;50.362;7.568;2023-08-24T12:35:14;28.70;55.40
51476;DHT22;37554;50.362;7.568;2023-08-24T12:37:40;28.70;54.90
51476;DHT22;37554;50.362;7.568;2023-08-24T12:40:07;28.60;55.10
51476;DHT22;37554;50.362;7.568;2023-08-24T12:42:33;28.50;55.30
51476;DHT22;37554;50.362;7.568;2023-08-24T12:44:59;28.50;55.10
51476;DHT22;37554;50.362;7.568;2023-08-24T12:47:25;28.50;55.20
51476;DHT22;37554;50.362;7.568;2023-08-24T12:49:51;28.40;56.00
51476;DHT22;37554;50.362;7.568;2023-08-24T12:52:18;28.40;55.90
51476;DHT22;37554;50.362;7.568;2023-08-24T12:54:43;28.30;55.60
51476;DHT22;37554;50.362;7.568;2023-08-24T12:57:09;28.20;56.60
51476;DHT22;37554;50.362;7.568;2023-08-24T12:59:35;28.10;59.10
51476;DHT22;37554;50.362;7.568;2023-08-24T13:02:00;27.90;60.50
51476;DHT22;37554;50.362;7.568;2023-08-24T13:04:26;27.80;60.10
51476;DHT22;37554;50.362;7.568;2023-08-24T13:06:53;27.70;59.40
51476;DHT22;37554;50.362;7.568;2023-08-24T13:09:19;27.70;58.90
51476;DHT22;37554;50.362;7.568;2023-08-24T13:11:44;27.60;58.40
51476;DHT22;37554;50.362;7.568;2023-08-24T13:14:10;27.60;58.30
51476;DHT22;37554;50.362;7.568;2023-08-24T13:16:36;27.50;58.50
51476;DHT22;37554;50.362;7.568;2023-08-24T13:19:01;27.60;58.40
51476;DHT22;37554;50.362;7.568;2023-08-24T13:21:27;27.60;58.10
51476;DHT22;37554;50.362;7.568;2023-08-24T13:23:53;27.80;57.90
51476;DHT22;37554;50.362;7.568;2023-08-24T13:26:20;27.90;57.70
51476;DHT22;37554;50.362;7.568;2023-08-24T13:28:46;27.90;57.40
51476;DHT22;37554;50.362;7.568;2023-08-24T13:31:12;28.00;57.60
51476;DHT22;37554;50.362;7.568;2023-08-24T13:33:38;28.00;57.50
51476;DHT22;37554;50.362;7.568;2023-08-24T13:36:04;28.10;57.60
51476;DHT22;37554;50.362;7.568;2023-08-24T13:38:30;28.10;57.70
51476;DHT22;37554;50.362;7.568;2023-08-24T13:40:56;28.20;57.80
51476;DHT22;37554;50.362;7.568;2023-08-24T13:43:22;28.20;58.10
51476;DHT22;37554;50.362;7.568;2023-08-24T13:45:48;28.20;58.30
51476;DHT22;37554;50.362;7.568;2023-08-24T13:48:14;28.30;58.50
51476;DHT22;37554;50.362;7.568;2023-08-24T13:50:41;28.40;59.40
51476;DHT22;37554;50.362;7.568;2023-08-24T13:53:07;28.40;58.80
51476;DHT22;37554;50.362;7.568;2023-08-24T13:55:33;28.40;58.90
51476;DHT22;37554;50.362;7.568;2023-08-24T13:57:58;28.50;59.10
51476;DHT22;37554;50.362;7.568;2023-08-24T14:00:25;28.60;59.40
51476;DHT22;37554;50.362;7.568;2023-08-24T14:02:51;28.60;59.60
51476;DHT22;37554;50.362;7.568;2023-08-24T14:05:17;28.60;59.90
51476;DHT22;37554;50.362;7.568;2023-08-24T14:07:43;28.60;60.10
51476;DHT22;37554;50.362;7.568;2023-08-24T14:10:08;28.50;60.20
51476;DHT22;37554;50.362;7.568;2023-08-24T14:12:34;28.60;60.50
51476;DHT22;37554;50.362;7.568;2023-08-24T14:15:00;28.50;60.60
51476;DHT22;37554;50.362;7.568;2023-08-24T14:17:26;28.50;60.90
51476;DHT22;37554;50.362;7.568;2023-08-24T14:19:52;28.50;60.90
51476;DHT22;37554;50.362;7.568;2023-08-24T14:22:17;28.50;61.20
51476;DHT22;37554;50.362;7.568;2023-08-24T14:24:43;28.50;61.30
51476;DHT22;37554;50.362;7.568;2023-08-24T14:27:08;28.50;61.50
51476;DHT22;37554;50.362;7.568;2023-08-24T14:29:34;28.50;61.60
51476;DHT22;37554;50.362;7.568;2023-08-24T14:32:00;28.40;61.80
51476;DHT22;37554;50.362;7.568;2023-08-24T14:34:26;28.40;61.80
51476;DHT22;37554;50.362;7.568;2023-08-24T14:36:52;28.40;61.90
51476;DHT22;37554;50.362;7.568;2023-08-24T14:39:19;28.40;62.00
51476;DHT22;37554;50.362;7.568;2023-08-24T14:41:44;28.40;62.10
51476;DHT22;37554;50.362;7.568;2023-08-24T14:44:10;28.30;62.10
51476;DHT22;37554;50.362;7.568;2023-08-24T14:46:35;28.30;62.10
51476;DHT22;37554;50.362;7.568;2023-08-24T14:49:01;28.30;62.30
51476;DHT22;37554;50.362;7.568;2023-08-24T14:51:27;28.30;62.60
51476;DHT22;37554;50.362;7.568;2023-08-24T14:53:52;28.30;62.60
51476;DHT22;37554;50.362;7.568;2023-08-24T14:56:18;28.30;62.60
51476;DHT22;37554;50.362;7.568;2023-08-24T14:58:44;28.30;62.60
51476;DHT22;37554;50.362;7.568;2023-08-24T15:01:10;28.20;62.60
51476;DHT22;37554;50.362;7.568;2023-08-24T15:03:36;28.20;62.70
51476;DHT22;37554;50.362;7.568;2023-08-24T15:06:04;28.20;62.80
51476;DHT22;37554;50.362;7.568;2023-08-24T15:08:31;28.10;63.00
51476;DHT22;37554;50.362;7.568;2023-08-24T15:10:58;28.20;63.10
51476;DHT22;37554;50.362;7.568;2023-08-24T15:13:25;28.10;63.10
51476;DHT22;37554;50.362;7.568;2023-08-24T15:15:53;28.10;63.20
51476;DHT22;37554;50.362;7.568;2023-08-24T15:18:19;28.10;63.30
51476;DHT22;37554;50.362;7.568;2023-08-24T15:20:45;28.10;63.40
51476;DHT22;37554;50.362;7.568;2023-08-24T15:23:20;28.00;63.60
51476;DHT22;37554;50.362;7.568;2023-08-24T15:25:46;28.00;63.60
51476;DHT22;37554;50.362;7.568;2023-08-24T15:28:12;28.00;63.50
51476;DHT22;37554;50.362;7.568;2023-08-24T15:30:37;28.00;63.70
51476;DHT22;37554;50.362;7.568;2023-08-24T15:33:03;27.90;63.70